sensor_id;sensor_type;location;lat;lon;timestamp;P1;P2;P0
49454;PMS5003;49011;64.658;21.218;2022-08-21T00:00:14;28;27;
49454;PMS5003;49011;64.658;21.218;2022-08-21T00:02:46;32;29;
49454;PMS5003;49011;64.658;21.218;2022-08-21T00:05:16;29;28;
49454;PMS5003;49011;64.658;21.218;2022-08-21T00:07:44;35;33;
49454;PMS5003;49011;64.658;21.218;2022-08-21T00:10:13;30;30;
49454;PMS5003;49011;64.658;21.218;2022-08-21T00:12:42;30;29;
49454;PMS5003;49011;64.658;21.218;2022-08-21T00:15:11;30;28;
49454;PMS5003;49011;64.658;21.218;2022-08-21T00:17:40;36;36;
49454;PMS5003;49011;64.658;21.218;2022-08-21T00:20:09;43;39;
49454;PMS5003;49011;64.658;21.218;2022-08-21T00:22:39;32;31;
49454;PMS5003;49011;64.658;21.218;2022-08-21T00:25:06;31;31;
49454;PMS5003;49011;64.658;21.218;2022-08-21T00:27:34;32;31;
49454;PMS5003;49011;64.658;21.218;2022-08-21T00:30:03;31;30;
49454;PMS5003;49011;64.658;21.218;2022-08-21T00:32:32;34;33;
49454;PMS5003;49011;64.658;21.218;2022-08-21T00:34:59;38;34;
49454;PMS5003;49011;64.658;21.218;2022-08-21T00:37:27;31;30;
49454;PMS5003;49011;64.658;21.218;2022-08-21T00:39:54;35;31;
49454;PMS5003;49011;64.658;21.218;2022-08-21T00:42:21;29;29;
49454;PMS5003;49011;64.658;21.218;2022-08-21T00:44:49;28;25;
49454;PMS5003;49011;64.658;21.218;2022-08-21T00:47:17;29;29;
49454;PMS5003;49011;64.658;21.218;2022-08-21T00:49:46;30;30;
49454;PMS5003;49011;64.658;21.218;2022-08-21T00:52:16;31;30;
49454;PMS5003;49011;64.658;21.218;2022-08-21T00:54:48;27;27;
49454;PMS5003;49011;64.658;21.218;2022-08-21T00:57:19;31;31;
49454;PMS5003;49011;64.658;21.218;2022-08-21T00:59:49;31;30;
49454;PMS5003;49011;64.658;21.218;2022-08-21T01:02:20;33;32;
49454;PMS5003;49011;64.658;21.218;2022-08-21T01:04:48;30;29;
49454;PMS5003;49011;64.658;21.218;2022-08-21T01:07:15;30;30;
49454;PMS5003;49011;64.658;21.218;2022-08-21T01:09:43;36;33;
49454;PMS5003;49011;64.658;21.218;2022-08-21T01:12:13;34;34;
49454;PMS5003;49011;64.658;21.218;2022-08-21T01:14:41;34;31;
49454;PMS5003;49011;64.658;21.218;2022-08-21T01:17:09;35;34;
49454;PMS5003;49011;64.658;21.218;2022-08-21T01:19:38;36;32;
49454;PMS5003;49011;64.658;21.218;2022-08-21T01:22:05;32;32;
49454;PMS5003;49011;64.658;21.218;2022-08-21T01:24:33;29;29;
49454;PMS5003;49011;64.658;21.218;2022-08-21T01:27:01;32;30;
49454;PMS5003;49011;64.658;21.218;2022-08-21T01:29:31;33;32;
49454;PMS5003;49011;64.658;21.218;2022-08-21T01:32:04;28;28;
49454;PMS5003;49011;64.658;21.218;2022-08-21T01:34:34;28;28;
49454;PMS5003;49011;64.658;21.218;2022-08-21T01:37:05;28;28;
49454;PMS5003;49011;64.658;21.218;2022-08-21T01:39:32;33;31;
49454;PMS5003;49011;64.658;21.218;2022-08-21T01:42:00;26;26;
49454;PMS5003;49011;64.658;21.218;2022-08-21T01:44:28;27;25;
49454;PMS5003;49011;64.658;21.218;2022-08-21T01:46:55;24;24;
49454;PMS5003;49011;64.658;21.218;2022-08-21T01:49:24;22;21;
49454;PMS5003;49011;64.658;21.218;2022-08-21T01:51:52;25;24;
49454;PMS5003;49011;64.658;21.218;2022-08-21T01:54:19;24;23;
49454;PMS5003;49011;64.658;21.218;2022-08-21T01:56:48;21;21;
49454;PMS5003;49011;64.658;21.218;2022-08-21T01:59:18;21;19;
49454;PMS5003;49011;64.658;21.218;2022-08-21T02:01:46;21;20;
49454;PMS5003;49011;64.658;21.218;2022-08-21T02:04:13;20;20;
49454;PMS5003;49011;64.658;21.218;2022-08-21T02:06:40;16;16;
49454;PMS5003;49011;64.658;21.218;2022-08-21T02:09:09;16;15;
49454;PMS5003;49011;64.658;21.218;2022-08-21T02:11:37;18;17;
49454;PMS5003;49011;64.658;21.218;2022-08-21T02:14:04;14;14;
49454;PMS5003;49011;64.658;21.218;2022-08-21T02:16:31;14;14;
49454;PMS5003;49011;64.658;21.218;2022-08-21T02:18:59;13;13;
49454;PMS5003;49011;64.658;21.218;2022-08-21T02:21:26;13;13;
49454;PMS5003;49011;64.658;21.218;2022-08-21T02:23:53;11;11;
49454;PMS5003;49011;64.658;21.218;2022-08-21T02:26:21;12;12;
49454;PMS5003;49011;64.658;21.218;2022-08-21T02:28:48;7;7;
49454;PMS5003;49011;64.658;21.218;2022-08-21T02:31:15;10;9;
49454;PMS5003;49011;64.658;21.218;2022-08-21T02:33:43;8;8;
49454;PMS5003;49011;64.658;21.218;2022-08-21T02:36:10;8;8;
49454;PMS5003;49011;64.658;21.218;2022-08-21T02:38:39;8;8;
49454;PMS5003;49011;64.658;21.218;2022-08-21T02:41:09;7;7;
49454;PMS5003;49011;64.658;21.218;2022-08-21T02:43:37;10;10;
49454;PMS5003;49011;64.658;21.218;2022-08-21T02:46:05;8;8;
49454;PMS5003;49011;64.658;21.218;2022-08-21T02:48:34;8;8;
49454;PMS5003;49011;64.658;21.218;2022-08-21T02:51:03;6;6;
49454;PMS5003;49011;64.658;21.218;2022-08-21T02:53:32;9;8;
49454;PMS5003;49011;64.658;21.218;2022-08-21T02:56:02;8;7;
49454;PMS5003;49011;64.658;21.218;2022-08-21T02:58:33;7;7;
49454;PMS5003;49011;64.658;21.218;2022-08-21T03:01:02;6;6;
49454;PMS5003;49011;64.658;21.218;2022-08-21T03:03:30;7;6;
49454;PMS5003;49011;64.658;21.218;2022-08-21T03:05:57;8;7;
49454;PMS5003;49011;64.658;21.218;2022-08-21T03:08:25;7;7;
49454;PMS5003;49011;64.658;21.218;2022-08-21T03:10:52;6;6;
49454;PMS5003;49011;64.658;21.218;2022-08-21T03:13:21;7;7;
49454;PMS5003;49011;64.658;21.218;2022-08-21T03:15:50;7;6;
49454;PMS5003;49011;64.658;21.218;2022-08-21T03:18:17;9;9;
49454;PMS5003;49011;64.658;21.218;2022-08-21T03:20:45;9;6;
49454;PMS5003;49011;64.658;21.218;2022-08-21T03:23:14;8;8;
49454;PMS5003;49011;64.658;21.218;2022-08-21T03:25:43;9;9;
49454;PMS5003;49011;64.658;21.218;2022-08-21T03:28:13;11;11;
49454;PMS5003;49011;64.658;21.218;2022-08-21T03:30:43;9;8;
49454;PMS5003;49011;64.658;21.218;2022-08-21T03:33:12;9;9;
49454;PMS5003;49011;64.658;21.218;2022-08-21T03:35:40;9;9;
49454;PMS5003;49011;64.658;21.218;2022-08-21T03:38:08;10;10;
49454;PMS5003;49011;64.658;21.218;2022-08-21T03:40:36;8;8;
49454;PMS5003;49011;64.658;21.218;2022-08-21T03:43:03;13;13;
49454;PMS5003;49011;64.658;21.218;2022-08-21T03:45:31;8;8;
49454;PMS5003;49011;64.658;21.218;2022-08-21T03:47:59;8;7;
49454;PMS5003;49011;64.658;21.218;2022-08-21T03:50:30;8;8;
49454;PMS5003;49011;64.658;21.218;2022-08-21T03:52:59;8;8;
49454;PMS5003;49011;64.658;21.218;2022-08-21T03:55:27;8;7;
49454;PMS5003;49011;64.658;21.218;2022-08-21T03:57:54;8;8;
49454;PMS5003;49011;64.658;21.218;2022-08-21T04:00:21;6;6;
49454;PMS5003;49011;64.658;21.218;2022-08-21T04:02:49;9;8;
49454;PMS5003;49011;64.658;21.218;2022-08-21T04:05:17;7;7;
49454;PMS5003;49011;64.658;21.218;2022-08-21T04:07:47;7;7;
49454;PMS5003;49011;64.658;21.218;2022-08-21T04:10:14;9;9;
49454;PMS5003;49011;64.658;21.218;2022-08-21T04:12:42;9;9;
49454;PMS5003;49011;64.658;21.218;2022-08-21T04:15:09;9;9;
49454;PMS5003;49011;64.658;21.218;2022-08-21T04:17:36;12;12;
49454;PMS5003;49011;64.658;21.218;2022-08-21T04:20:04;11;11;
49454;PMS5003;49011;64.658;21.218;2022-08-21T04:22:31;13;11;
49454;PMS5003;49011;64.658;21.218;2022-08-21T04:24:59;11;11;
49454;PMS5003;49011;64.658;21.218;2022-08-21T04:27:26;13;13;
49454;PMS5003;49011;64.658;21.218;2022-08-21T04:29:53;14;14;
49454;PMS5003;49011;64.658;21.218;2022-08-21T04:32:21;13;12;
49454;PMS5003;49011;64.658;21.218;2022-08-21T04:34:49;16;16;
49454;PMS5003;49011;64.658;21.218;2022-08-21T04:37:17;14;13;
49454;PMS5003;49011;64.658;21.218;2022-08-21T04:39:44;16;15;
49454;PMS5003;49011;64.658;21.218;2022-08-21T04:42:11;15;15;
49454;PMS5003;49011;64.658;21.218;2022-08-21T04:44:38;16;16;
49454;PMS5003;49011;64.658;21.218;2022-08-21T04:47:05;13;13;
49454;PMS5003;49011;64.658;21.218;2022-08-21T04:49:32;13;13;
49454;PMS5003;49011;64.658;21.218;2022-08-21T04:51:59;14;13;
49454;PMS5003;49011;64.658;21.218;2022-08-21T04:54:27;13;13;
49454;PMS5003;49011;64.658;21.218;2022-08-21T04:56:56;13;13;
49454;PMS5003;49011;64.658;21.218;2022-08-21T04:59:28;12;12;
49454;PMS5003;49011;64.658;21.218;2022-08-21T05:01:59;13;13;
49454;PMS5003;49011;64.658;21.218;2022-08-21T05:04:28;13;12;
49454;PMS5003;49011;64.658;21.218;2022-08-21T05:06:59;12;12;
49454;PMS5003;49011;64.658;21.218;2022-08-21T05:09:31;13;13;
49454;PMS5003;49011;64.658;21.218;2022-08-21T05:12:00;15;15;
49454;PMS5003;49011;64.658;21.218;2022-08-21T05:14:28;13;13;
49454;PMS5003;49011;64.658;21.218;2022-08-21T05:16:55;17;16;
49454;PMS5003;49011;64.658;21.218;2022-08-21T05:19:22;15;15;
49454;PMS5003;49011;64.658;21.218;2022-08-21T05:21:50;22;21;
49454;PMS5003;49011;64.658;21.218;2022-08-21T05:24:17;17;16;
49454;PMS5003;49011;64.658;21.218;2022-08-21T05:26:45;18;17;
49454;PMS5003;49011;64.658;21.218;2022-08-21T05:29:13;18;17;
49454;PMS5003;49011;64.658;21.218;2022-08-21T05:31:41;15;15;
49454;PMS5003;49011;64.658;21.218;2022-08-21T05:34:09;17;17;
49454;PMS5003;49011;64.658;21.218;2022-08-21T05:36:37;16;15;
49454;PMS5003;49011;64.658;21.218;2022-08-21T05:39:04;13;13;
49454;PMS5003;49011;64.658;21.218;2022-08-21T05:41:31;13;12;
49454;PMS5003;49011;64.658;21.218;2022-08-21T05:43:58;11;11;
49454;PMS5003;49011;64.658;21.218;2022-08-21T05:46:25;12;12;
49454;PMS5003;49011;64.658;21.218;2022-08-21T05:48:53;10;10;
49454;PMS5003;49011;64.658;21.218;2022-08-21T05:51:20;13;13;
49454;PMS5003;49011;64.658;21.218;2022-08-21T05:53:47;11;11;
49454;PMS5003;49011;64.658;21.218;2022-08-21T05:56:15;10;10;
49454;PMS5003;49011;64.658;21.218;2022-08-21T05:58:43;13;11;
49454;PMS5003;49011;64.658;21.218;2022-08-21T06:01:10;12;12;
49454;PMS5003;49011;64.658;21.218;2022-08-21T06:03:38;10;10;
49454;PMS5003;49011;64.658;21.218;2022-08-21T06:06:07;10;10;
49454;PMS5003;49011;64.658;21.218;2022-08-21T06:08:35;10;10;
49454;PMS5003;49011;64.658;21.218;2022-08-21T06:11:03;12;11;
49454;PMS5003;49011;64.658;21.218;2022-08-21T06:13:31;11;11;
49454;PMS5003;49011;64.658;21.218;2022-08-21T06:16:00;14;14;
49454;PMS5003;49011;64.658;21.218;2022-08-21T06:18:29;12;12;
49454;PMS5003;49011;64.658;21.218;2022-08-21T06:20:57;14;14;
49454;PMS5003;49011;64.658;21.218;2022-08-21T06:23:24;15;15;
49454;PMS5003;49011;64.658;21.218;2022-08-21T06:25:51;13;12;
49454;PMS5003;49011;64.658;21.218;2022-08-21T06:28:19;11;11;
49454;PMS5003;49011;64.658;21.218;2022-08-21T06:30:46;10;10;
49454;PMS5003;49011;64.658;21.218;2022-08-21T06:33:14;10;10;
49454;PMS5003;49011;64.658;21.218;2022-08-21T06:35:41;11;11;
49454;PMS5003;49011;64.658;21.218;2022-08-21T06:38:08;13;13;
49454;PMS5003;49011;64.658;21.218;2022-08-21T06:40:35;10;10;
49454;PMS5003;49011;64.658;21.218;2022-08-21T06:43:05;10;10;
49454;PMS5003;49011;64.658;21.218;2022-08-21T06:45:34;13;13;
49454;PMS5003;49011;64.658;21.218;2022-08-21T06:48:01;12;12;
49454;PMS5003;49011;64.658;21.218;2022-08-21T06:50:29;12;12;
49454;PMS5003;49011;64.658;21.218;2022-08-21T06:52:59;12;12;
49454;PMS5003;49011;64.658;21.218;2022-08-21T06:55:27;13;12;
49454;PMS5003;49011;64.658;21.218;2022-08-21T06:57:54;13;13;
49454;PMS5003;49011;64.658;21.218;2022-08-21T07:00:22;13;12;
49454;PMS5003;49011;64.658;21.218;2022-08-21T07:02:49;13;13;
49454;PMS5003;49011;64.658;21.218;2022-08-21T07:05:16;13;13;
49454;PMS5003;49011;64.658;21.218;2022-08-21T07:07:44;12;11;
49454;PMS5003;49011;64.658;21.218;2022-08-21T07:10:12;11;11;
49454;PMS5003;49011;64.658;21.218;2022-08-21T07:12:40;10;10;
49454;PMS5003;49011;64.658;21.218;2022-08-21T07:15:09;13;12;
49454;PMS5003;49011;64.658;21.218;2022-08-21T07:17:36;14;12;
49454;PMS5003;49011;64.658;21.218;2022-08-21T07:20:04;9;9;
49454;PMS5003;49011;64.658;21.218;2022-08-21T07:22:33;13;12;
49454;PMS5003;49011;64.658;21.218;2022-08-21T07:25:05;12;11;
49454;PMS5003;49011;64.658;21.218;2022-08-21T07:27:32;12;12;
49454;PMS5003;49011;64.658;21.218;2022-08-21T07:30:00;13;13;
49454;PMS5003;49011;64.658;21.218;2022-08-21T07:32:27;10;10;
49454;PMS5003;49011;64.658;21.218;2022-08-21T07:34:55;13;12;
49454;PMS5003;49011;64.658;21.218;2022-08-21T07:37:22;12;12;
49454;PMS5003;49011;64.658;21.218;2022-08-21T07:39:49;14;13;
49454;PMS5003;49011;64.658;21.218;2022-08-21T07:42:16;17;17;
49454;PMS5003;49011;64.658;21.218;2022-08-21T07:44:43;17;16;
49454;PMS5003;49011;64.658;21.218;2022-08-21T07:47:10;14;14;
49454;PMS5003;49011;64.658;21.218;2022-08-21T07:49:37;16;15;
49454;PMS5003;49011;64.658;21.218;2022-08-21T07:52:05;16;15;
49454;PMS5003;49011;64.658;21.218;2022-08-21T07:54:33;17;16;
49454;PMS5003;49011;64.658;21.218;2022-08-21T07:57:01;16;16;
49454;PMS5003;49011;64.658;21.218;2022-08-21T07:59:28;19;18;
49454;PMS5003;49011;64.658;21.218;2022-08-21T08:01:56;17;17;
49454;PMS5003;49011;64.658;21.218;2022-08-21T08:04:23;19;18;
49454;PMS5003;49011;64.658;21.218;2022-08-21T08:06:51;18;17;
49454;PMS5003;49011;64.658;21.218;2022-08-21T08:09:19;16;15;
49454;PMS5003;49011;64.658;21.218;2022-08-21T08:11:47;15;15;
49454;PMS5003;49011;64.658;21.218;2022-08-21T08:14:14;22;21;
49454;PMS5003;49011;64.658;21.218;2022-08-21T08:16:42;17;17;
49454;PMS5003;49011;64.658;21.218;2022-08-21T08:19:10;21;20;
49454;PMS5003;49011;64.658;21.218;2022-08-21T08:21:37;19;18;
49454;PMS5003;49011;64.658;21.218;2022-08-21T08:24:04;18;18;
49454;PMS5003;49011;64.658;21.218;2022-08-21T08:26:32;19;19;
49454;PMS5003;49011;64.658;21.218;2022-08-21T08:28:59;20;18;
49454;PMS5003;49011;64.658;21.218;2022-08-21T08:31:27;18;17;
49454;PMS5003;49011;64.658;21.218;2022-08-21T08:33:54;19;19;
49454;PMS5003;49011;64.658;21.218;2022-08-21T08:36:21;23;21;
49454;PMS5003;49011;64.658;21.218;2022-08-21T08:38:59;20;19;
49454;PMS5003;49011;64.658;21.218;2022-08-21T08:41:27;19;19;
49454;PMS5003;49011;64.658;21.218;2022-08-21T08:43:57;20;19;
49454;PMS5003;49011;64.658;21.218;2022-08-21T08:46:30;19;15;
49454;PMS5003;49011;64.658;21.218;2022-08-21T08:49:02;18;17;
49454;PMS5003;49011;64.658;21.218;2022-08-21T08:51:39;21;20;
49454;PMS5003;49011;64.658;21.218;2022-08-21T08:54:13;20;20;
49454;PMS5003;49011;64.658;21.218;2022-08-21T08:56:44;18;18;
49454;PMS5003;49011;64.658;21.218;2022-08-21T08:59:14;19;18;
49454;PMS5003;49011;64.658;21.218;2022-08-21T09:01:44;22;21;
49454;PMS5003;49011;64.658;21.218;2022-08-21T09:04:13;16;16;
49454;PMS5003;49011;64.658;21.218;2022-08-21T09:06:49;19;18;
49454;PMS5003;49011;64.658;21.218;2022-08-21T09:09:33;16;16;
49454;PMS5003;49011;64.658;21.218;2022-08-21T09:12:10;16;15;
49454;PMS5003;49011;64.658;21.218;2022-08-21T09:14:47;17;17;
49454;PMS5003;49011;64.658;21.218;2022-08-21T09:17:29;17;17;
49454;PMS5003;49011;64.658;21.218;2022-08-21T09:20:09;18;18;
49454;PMS5003;49011;64.658;21.218;2022-08-21T09:22:48;20;20;
49454;PMS5003;49011;64.658;21.218;2022-08-21T09:25:30;19;17;
49454;PMS5003;49011;64.658;21.218;2022-08-21T09:28:00;16;15;
49454;PMS5003;49011;64.658;21.218;2022-08-21T09:30:28;15;15;
49454;PMS5003;49011;64.658;21.218;2022-08-21T09:32:58;14;13;
49454;PMS5003;49011;64.658;21.218;2022-08-21T09:35:25;12;12;
49454;PMS5003;49011;64.658;21.218;2022-08-21T09:37:54;17;17;
49454;PMS5003;49011;64.658;21.218;2022-08-21T09:40:32;11;11;
49454;PMS5003;49011;64.658;21.218;2022-08-21T09:43:05;11;11;
49454;PMS5003;49011;64.658;21.218;2022-08-21T09:45:42;9;9;
49454;PMS5003;49011;64.658;21.218;2022-08-21T09:48:11;9;9;
49454;PMS5003;49011;64.658;21.218;2022-08-21T09:50:41;13;10;
49454;PMS5003;49011;64.658;21.218;2022-08-21T09:53:15;9;9;
49454;PMS5003;49011;64.658;21.218;2022-08-21T09:55:49;9;8;
49454;PMS5003;49011;64.658;21.218;2022-08-21T09:58:19;9;9;
49454;PMS5003;49011;64.658;21.218;2022-08-21T10:00:56;11;10;
49454;PMS5003;49011;64.658;21.218;2022-08-21T10:03:25;8;8;
49454;PMS5003;49011;64.658;21.218;2022-08-21T10:05:54;9;9;
49454;PMS5003;49011;64.658;21.218;2022-08-21T10:08:25;11;11;
49454;PMS5003;49011;64.658;21.218;2022-08-21T10:10:55;9;9;
49454;PMS5003;49011;64.658;21.218;2022-08-21T10:13:30;11;9;
49454;PMS5003;49011;64.658;21.218;2022-08-21T10:16:14;8;8;
49454;PMS5003;49011;64.658;21.218;2022-08-21T10:18:52;8;8;
49454;PMS5003;49011;64.658;21.218;2022-08-21T10:21:29;7;7;
49454;PMS5003;49011;64.658;21.218;2022-08-21T10:24:05;6;6;
49454;PMS5003;49011;64.658;21.218;2022-08-21T10:26:43;6;6;
49454;PMS5003;49011;64.658;21.218;2022-08-21T10:29:22;8;7;
49454;PMS5003;49011;64.658;21.218;2022-08-21T10:32:08;6;6;
49454;PMS5003;49011;64.658;21.218;2022-08-21T10:34:48;7;6;
49454;PMS5003;49011;64.658;21.218;2022-08-21T10:37:26;6;6;
49454;PMS5003;49011;64.658;21.218;2022-08-21T10:40:08;8;8;
49454;PMS5003;49011;64.658;21.218;2022-08-21T10:42:46;6;6;
49454;PMS5003;49011;64.658;21.218;2022-08-21T10:45:29;7;7;
49454;PMS5003;49011;64.658;21.218;2022-08-21T10:48:10;8;8;
49454;PMS5003;49011;64.658;21.218;2022-08-21T10:50:48;6;5;
49454;PMS5003;49011;64.658;21.218;2022-08-21T10:53:28;7;7;
49454;PMS5003;49011;64.658;21.218;2022-08-21T10:56:08;7;7;
49454;PMS5003;49011;64.658;21.218;2022-08-21T10:58:40;6;6;
49454;PMS5003;49011;64.658;21.218;2022-08-21T11:01:18;6;6;
49454;PMS5003;49011;64.658;21.218;2022-08-21T11:03:51;6;6;
49454;PMS5003;49011;64.658;21.218;2022-08-21T11:06:35;6;6;
49454;PMS5003;49011;64.658;21.218;2022-08-21T11:09:09;6;6;
49454;PMS5003;49011;64.658;21.218;2022-08-21T11:11:41;9;8;
49454;PMS5003;49011;64.658;21.218;2022-08-21T11:14:17;7;6;
49454;PMS5003;49011;64.658;21.218;2022-08-21T11:16:53;9;7;
49454;PMS5003;49011;64.658;21.218;2022-08-21T11:19:28;7;7;
49454;PMS5003;49011;64.658;21.218;2022-08-21T11:22:02;9;9;
49454;PMS5003;49011;64.658;21.218;2022-08-21T11:24:40;6;6;
49454;PMS5003;49011;64.658;21.218;2022-08-21T11:27:22;6;6;
49454;PMS5003;49011;64.658;21.218;2022-08-21T11:29:53;7;7;
49454;PMS5003;49011;64.658;21.218;2022-08-21T11:32:28;8;8;
49454;PMS5003;49011;64.658;21.218;2022-08-21T11:35:08;6;6;
49454;PMS5003;49011;64.658;21.218;2022-08-21T11:37:48;7;7;
49454;PMS5003;49011;64.658;21.218;2022-08-21T11:40:34;6;6;
49454;PMS5003;49011;64.658;21.218;2022-08-21T11:43:11;6;6;
49454;PMS5003;49011;64.658;21.218;2022-08-21T11:45:48;7;6;
49454;PMS5003;49011;64.658;21.218;2022-08-21T11:48:23;6;6;
49454;PMS5003;49011;64.658;21.218;2022-08-21T11:51:02;8;7;
49454;PMS5003;49011;64.658;21.218;2022-08-21T11:53:36;6;6;
49454;PMS5003;49011;64.658;21.218;2022-08-21T11:56:11;7;7;
49454;PMS5003;49011;64.658;21.218;2022-08-21T11:58:42;7;7;
49454;PMS5003;49011;64.658;21.218;2022-08-21T12:01:16;6;6;
49454;PMS5003;49011;64.658;21.218;2022-08-21T12:03:51;5;4;
49454;PMS5003;49011;64.658;21.218;2022-08-21T12:06:29;5;5;
49454;PMS5003;49011;64.658;21.218;2022-08-21T12:08:58;5;5;
49454;PMS5003;49011;64.658;21.218;2022-08-21T12:11:27;5;5;
49454;PMS5003;49011;64.658;21.218;2022-08-21T12:13:56;4;4;
49454;PMS5003;49011;64.658;21.218;2022-08-21T12:16:40;4;4;
49454;PMS5003;49011;64.658;21.218;2022-08-21T12:19:11;3;3;
49454;PMS5003;49011;64.658;21.218;2022-08-21T12:21:47;5;5;
49454;PMS5003;49011;64.658;21.218;2022-08-21T12:24:18;5;5;
49454;PMS5003;49011;64.658;21.218;2022-08-21T12:26:59;5;5;
49454;PMS5003;49011;64.658;21.218;2022-08-21T12:29:43;4;4;
49454;PMS5003;49011;64.658;21.218;2022-08-21T12:32:20;4;4;
49454;PMS5003;49011;64.658;21.218;2022-08-21T12:34:53;3;3;
49454;PMS5003;49011;64.658;21.218;2022-08-21T12:37:30;7;6;
49454;PMS5003;49011;64.658;21.218;2022-08-21T12:40:10;5;5;
49454;PMS5003;49011;64.658;21.218;2022-08-21T12:42:46;6;6;
49454;PMS5003;49011;64.658;21.218;2022-08-21T12:45:18;5;5;
49454;PMS5003;49011;64.658;21.218;2022-08-21T12:47:51;5;5;
49454;PMS5003;49011;64.658;21.218;2022-08-21T12:50:36;6;6;
49454;PMS5003;49011;64.658;21.218;2022-08-21T12:53:09;6;6;
49454;PMS5003;49011;64.658;21.218;2022-08-21T12:55:43;6;6;
49454;PMS5003;49011;64.658;21.218;2022-08-21T12:58:16;5;5;
49454;PMS5003;49011;64.658;21.218;2022-08-21T13:00:48;6;6;
49454;PMS5003;49011;64.658;21.218;2022-08-21T13:03:19;6;6;
49454;PMS5003;49011;64.658;21.218;2022-08-21T13:05:47;7;7;
49454;PMS5003;49011;64.658;21.218;2022-08-21T13:08:15;7;7;
49454;PMS5003;49011;64.658;21.218;2022-08-21T13:10:47;7;7;
49454;PMS5003;49011;64.658;21.218;2022-08-21T13:13:24;8;8;
49454;PMS5003;49011;64.658;21.218;2022-08-21T13:15:56;9;8;
49454;PMS5003;49011;64.658;21.218;2022-08-21T13:18:26;9;9;
49454;PMS5003;49011;64.658;21.218;2022-08-21T13:21:03;11;11;
49454;PMS5003;49011;64.658;21.218;2022-08-21T13:23:32;8;8;
49454;PMS5003;49011;64.658;21.218;2022-08-21T13:25:59;8;8;
49454;PMS5003;49011;64.658;21.218;2022-08-21T13:28:32;9;9;
49454;PMS5003;49011;64.658;21.218;2022-08-21T13:31:01;11;11;
49454;PMS5003;49011;64.658;21.218;2022-08-21T13:33:33;12;12;
49454;PMS5003;49011;64.658;21.218;2022-08-21T13:36:03;12;11;
49454;PMS5003;49011;64.658;21.218;2022-08-21T13:38:36;8;8;
49454;PMS5003;49011;64.658;21.218;2022-08-21T13:41:10;12;12;
49454;PMS5003;49011;64.658;21.218;2022-08-21T13:43:49;10;10;
49454;PMS5003;49011;64.658;21.218;2022-08-21T13:46:22;11;11;
49454;PMS5003;49011;64.658;21.218;2022-08-21T13:48:53;10;10;
49454;PMS5003;49011;64.658;21.218;2022-08-21T13:51:20;9;9;
49454;PMS5003;49011;64.658;21.218;2022-08-21T13:53:49;12;11;
49454;PMS5003;49011;64.658;21.218;2022-08-21T13:56:23;11;11;
49454;PMS5003;49011;64.658;21.218;2022-08-21T13:58:53;9;9;
49454;PMS5003;49011;64.658;21.218;2022-08-21T14:01:23;12;12;
49454;PMS5003;49011;64.658;21.218;2022-08-21T14:03:54;9;9;
49454;PMS5003;49011;64.658;21.218;2022-08-21T14:06:26;11;11;
49454;PMS5003;49011;64.658;21.218;2022-08-21T14:08:59;9;9;
49454;PMS5003;49011;64.658;21.218;2022-08-21T14:11:34;11;10;
49454;PMS5003;49011;64.658;21.218;2022-08-21T14:14:04;13;12;
49454;PMS5003;49011;64.658;21.218;2022-08-21T14:16:43;12;11;
49454;PMS5003;49011;64.658;21.218;2022-08-21T14:19:17;11;11;
49454;PMS5003;49011;64.658;21.218;2022-08-21T14:21:47;10;10;
49454;PMS5003;49011;64.658;21.218;2022-08-21T14:24:25;13;12;
49454;PMS5003;49011;64.658;21.218;2022-08-21T14:26:55;15;14;
49454;PMS5003;49011;64.658;21.218;2022-08-21T14:29:24;11;11;
49454;PMS5003;49011;64.658;21.218;2022-08-21T14:31:55;10;10;
49454;PMS5003;49011;64.658;21.218;2022-08-21T14:34:25;11;10;
49454;PMS5003;49011;64.658;21.218;2022-08-21T14:36:54;10;10;
49454;PMS5003;49011;64.658;21.218;2022-08-21T14:39:22;9;9;
49454;PMS5003;49011;64.658;21.218;2022-08-21T14:41:50;9;9;
49454;PMS5003;49011;64.658;21.218;2022-08-21T14:44:19;9;9;
49454;PMS5003;49011;64.658;21.218;2022-08-21T14:46:47;8;8;
49454;PMS5003;49011;64.658;21.218;2022-08-21T14:49:14;11;11;
49454;PMS5003;49011;64.658;21.218;2022-08-21T14:51:42;8;8;
49454;PMS5003;49011;64.658;21.218;2022-08-21T14:54:09;9;9;
49454;PMS5003;49011;64.658;21.218;2022-08-21T14:56:36;9;9;
49454;PMS5003;49011;64.658;21.218;2022-08-21T14:59:04;10;10;
49454;PMS5003;49011;64.658;21.218;2022-08-21T15:01:34;8;7;
49454;PMS5003;49011;64.658;21.218;2022-08-21T15:04:04;8;8;
49454;PMS5003;49011;64.658;21.218;2022-08-21T15:06:32;6;5;
49454;PMS5003;49011;64.658;21.218;2022-08-21T15:08:59;10;8;
49454;PMS5003;49011;64.658;21.218;2022-08-21T15:11:26;7;7;
49454;PMS5003;49011;64.658;21.218;2022-08-21T15:13:56;9;9;
49454;PMS5003;49011;64.658;21.218;2022-08-21T15:16:27;7;7;
49454;PMS5003;49011;64.658;21.218;2022-08-21T15:18:55;8;8;
49454;PMS5003;49011;64.658;21.218;2022-08-21T15:21:22;8;8;
49454;PMS5003;49011;64.658;21.218;2022-08-21T15:23:50;8;7;
49454;PMS5003;49011;64.658;21.218;2022-08-21T15:26:17;8;8;
49454;PMS5003;49011;64.658;21.218;2022-08-21T15:28:45;9;8;
49454;PMS5003;49011;64.658;21.218;2022-08-21T15:31:12;7;6;
49454;PMS5003;49011;64.658;21.218;2022-08-21T15:33:39;9;9;
49454;PMS5003;49011;64.658;21.218;2022-08-21T15:36:07;6;6;
49454;PMS5003;49011;64.658;21.218;2022-08-21T15:38:34;8;8;
49454;PMS5003;49011;64.658;21.218;2022-08-21T15:41:02;7;7;
49454;PMS5003;49011;64.658;21.218;2022-08-21T15:43:31;9;9;
49454;PMS5003;49011;64.658;21.218;2022-08-21T15:46:03;9;8;
49454;PMS5003;49011;64.658;21.218;2022-08-21T15:48:31;8;8;
49454;PMS5003;49011;64.658;21.218;2022-08-21T15:50:58;6;6;
49454;PMS5003;49011;64.658;21.218;2022-08-21T15:53:25;7;7;
49454;PMS5003;49011;64.658;21.218;2022-08-21T15:55:53;7;6;
49454;PMS5003;49011;64.658;21.218;2022-08-21T15:58:20;9;9;
49454;PMS5003;49011;64.658;21.218;2022-08-21T16:00:48;11;10;
49454;PMS5003;49011;64.658;21.218;2022-08-21T16:03:16;8;7;
49454;PMS5003;49011;64.658;21.218;2022-08-21T16:05:44;8;6;
49454;PMS5003;49011;64.658;21.218;2022-08-21T16:08:12;6;6;
49454;PMS5003;49011;64.658;21.218;2022-08-21T16:10:40;7;7;
49454;PMS5003;49011;64.658;21.218;2022-08-21T16:13:14;9;8;
49454;PMS5003;49011;64.658;21.218;2022-08-21T16:15:48;9;9;
49454;PMS5003;49011;64.658;21.218;2022-08-21T16:18:18;8;8;
49454;PMS5003;49011;64.658;21.218;2022-08-21T16:20:46;10;9;
49454;PMS5003;49011;64.658;21.218;2022-08-21T16:23:15;7;7;
49454;PMS5003;49011;64.658;21.218;2022-08-21T16:25:43;8;8;
49454;PMS5003;49011;64.658;21.218;2022-08-21T16:28:12;8;8;
49454;PMS5003;49011;64.658;21.218;2022-08-21T16:30:42;5;5;
49454;PMS5003;49011;64.658;21.218;2022-08-21T16:33:24;7;7;
49454;PMS5003;49011;64.658;21.218;2022-08-21T16:35:57;9;8;